createdAt,value
2022-11-30T00:00:56.130Z,2.42
2022-11-30T00:03:23.236Z,2.62
2022-11-30T00:05:50.368Z,2.49
2022-11-30T00:08:17.329Z,2.63
2022-11-30T00:10:44.312Z,2.56
2022-11-30T00:13:11.201Z,2.59
2022-11-30T00:15:38.262Z,2.43
2022-11-30T00:18:05.215Z,2.59
2022-11-30T00:20:32.194Z,2.61
2022-11-30T00:22:59.207Z,2.45
2022-11-30T00:25:26.098Z,2.56
2022-11-30T00:27:53.081Z,2.64
2022-11-30T00:30:20.142Z,2.55
2022-11-30T00:32:47.137Z,2.47
2022-11-30T00:35:14.063Z,2.62
2022-11-30T00:37:41.043Z,2.51
2022-11-30T00:40:08.358Z,2.68
2022-11-30T00:42:35.308Z,2.52
2022-11-30T00:45:02.215Z,2.56
2022-11-30T00:47:29.100Z,2.69
2022-11-30T00:49:56.128Z,2.57
2022-11-30T00:52:23.118Z,2.60
2022-11-30T00:54:50.076Z,2.54
2022-11-30T00:57:17.030Z,2.57
2022-11-30T00:59:43.970Z,2.61
2022-11-30T01:02:10.860Z,2.70
2022-11-30T01:04:37.867Z,2.58
2022-11-30T01:07:04.904Z,2.64
2022-11-30T01:09:31.870Z,2.68
2022-11-30T01:11:58.783Z,2.77
2022-11-30T01:14:26.844Z,2.63
2022-11-30T01:16:56.374Z,2.76
2022-11-30T01:19:24.162Z,2.61
2022-11-30T01:21:51.124Z,2.62
2022-11-30T01:24:18.029Z,2.73
2022-11-30T01:26:44.956Z,2.71
2022-11-30T01:29:11.870Z,2.62
2022-11-30T01:31:38.888Z,2.59
2022-11-30T01:34:05.877Z,2.75
2022-11-30T01:36:32.992Z,2.59
2022-11-30T01:38:59.880Z,2.76
2022-11-30T01:41:28.974Z,2.60
2022-11-30T01:43:57.782Z,2.69
2022-11-30T01:46:57.073Z,2.69
2022-11-30T01:49:32.964Z,2.68
2022-11-30T01:52:10.728Z,2.68
2022-11-30T01:54:56.715Z,2.63
2022-11-30T01:57:43.939Z,2.64
2022-11-30T02:00:12.825Z,2.51
2022-11-30T02:03:17.889Z,2.60
2022-11-30T02:05:44.844Z,2.48
2022-11-30T02:08:11.898Z,2.65
2022-11-30T02:10:40.380Z,2.54
2022-11-30T02:13:17.310Z,2.53
2022-11-30T02:16:07.544Z,2.68
2022-11-30T02:18:43.371Z,2.55
2022-11-30T02:21:14.567Z,2.54
2022-11-30T02:24:06.141Z,2.68
2022-11-30T02:26:40.367Z,2.60
2022-11-30T02:29:13.490Z,2.47
2022-11-30T02:31:55.544Z,2.56
2022-11-30T02:34:22.707Z,2.50
2022-11-30T02:36:49.580Z,2.56
2022-11-30T02:39:17.328Z,2.71
2022-11-30T02:41:45.983Z,2.49
2022-11-30T02:44:12.905Z,2.66
2022-11-30T02:46:53.325Z,2.72
2022-11-30T02:49:29.296Z,2.72
2022-11-30T02:51:56.249Z,2.70
2022-11-30T02:54:23.630Z,2.47
2022-11-30T02:56:50.595Z,2.66
2022-11-30T02:59:17.519Z,2.71
2022-11-30T03:01:44.980Z,2.60
2022-11-30T03:04:11.939Z,2.53
2022-11-30T03:06:38.859Z,2.59
2022-11-30T03:09:05.829Z,2.63
2022-11-30T03:11:33.032Z,2.64
2022-11-30T03:14:00.171Z,2.61
2022-11-30T03:16:27.070Z,2.66
2022-11-30T03:18:54.092Z,2.64
2022-11-30T03:21:21.017Z,2.60
2022-11-30T03:23:47.963Z,2.59
2022-11-30T03:26:14.810Z,2.43
2022-11-30T03:28:41.843Z,2.61
2022-11-30T03:31:11.914Z,2.51
2022-11-30T03:33:40.936Z,2.51
2022-11-30T03:36:09.000Z,2.48
2022-11-30T03:38:35.982Z,2.41
2022-11-30T03:41:18.983Z,2.45
2022-11-30T03:43:46.304Z,2.28
2022-11-30T03:46:13.425Z,2.37
2022-11-30T03:48:43.389Z,2.35
2022-11-30T03:51:10.589Z,2.51
2022-11-30T03:53:37.583Z,2.26
2022-11-30T03:56:06.455Z,2.48
2022-11-30T03:58:33.420Z,2.28
2022-11-30T04:01:00.387Z,2.51
2022-11-30T04:03:27.502Z,2.51
2022-11-30T04:05:54.482Z,2.49
2022-11-30T04:08:21.376Z,2.52
2022-11-30T04:10:50.716Z,2.37
2022-11-30T04:13:17.982Z,2.30
2022-11-30T04:15:46.747Z,2.48
2022-11-30T04:18:14.454Z,2.32
2022-11-30T04:20:41.564Z,2.35
2022-11-30T04:23:09.699Z,2.53
2022-11-30T04:25:42.647Z,2.41
2022-11-30T04:28:09.721Z,2.41
2022-11-30T04:30:36.883Z,2.41
2022-11-30T04:33:04.063Z,2.37
2022-11-30T04:35:30.961Z,2.39
2022-11-30T04:37:57.914Z,2.52
2022-11-30T04:40:24.849Z,2.33
2022-11-30T04:42:51.782Z,2.48
2022-11-30T04:45:18.778Z,2.38
2022-11-30T04:47:45.800Z,2.32
2022-11-30T04:50:12.704Z,2.50
2022-11-30T04:52:39.640Z,2.48
2022-11-30T04:55:06.966Z,2.29
2022-11-30T04:57:33.845Z,2.36
2022-11-30T05:00:00.738Z,2.33
2022-11-30T05:02:29.694Z,2.48
2022-11-30T05:04:56.882Z,2.33
2022-11-30T05:07:23.871Z,2.36
2022-11-30T05:09:50.931Z,2.44
2022-11-30T05:12:17.821Z,2.47
2022-11-30T05:14:45.081Z,2.34
2022-11-30T05:17:12.452Z,2.36
2022-11-30T05:19:39.363Z,2.47
2022-11-30T05:22:06.387Z,2.37
2022-11-30T05:24:33.352Z,2.36
2022-11-30T05:27:00.292Z,2.29
2022-11-30T05:29:27.152Z,2.27
2022-11-30T05:31:54.152Z,2.29
2022-11-30T05:34:21.162Z,2.45
2022-11-30T05:36:48.078Z,2.28
2022-11-30T05:39:15.094Z,2.30
2022-11-30T05:41:42.000Z,2.33
2022-11-30T05:44:09.076Z,2.44
2022-11-30T05:46:40.771Z,2.36
2022-11-30T05:49:08.165Z,2.49
2022-11-30T05:51:35.061Z,2.30
2022-11-30T05:54:02.124Z,2.48
2022-11-30T05:56:28.990Z,2.34
2022-11-30T05:58:55.944Z,2.46
2022-11-30T06:01:28.905Z,2.32
2022-11-30T06:03:56.026Z,2.25
2022-11-30T06:06:23.044Z,2.35
2022-11-30T06:08:50.356Z,2.33
2022-11-30T06:11:17.408Z,2.34
2022-11-30T06:13:44.364Z,2.33
2022-11-30T06:16:11.445Z,2.47
2022-11-30T06:18:38.767Z,2.35
2022-11-30T06:21:08.135Z,2.38
2022-11-30T06:23:35.204Z,2.43
2022-11-30T06:26:06.140Z,2.41
2022-11-30T06:28:33.514Z,2.36
2022-11-30T06:31:01.077Z,2.50
2022-11-30T06:33:28.202Z,2.43
2022-11-30T06:35:55.113Z,2.37
2022-11-30T06:38:22.463Z,2.56
2022-11-30T06:40:49.609Z,2.53
2022-11-30T06:43:16.608Z,2.51
2022-11-30T06:45:45.070Z,2.57
2022-11-30T06:48:12.567Z,2.54
2022-11-30T06:50:39.641Z,2.44
2022-11-30T06:53:06.612Z,2.39
2022-11-30T06:55:36.036Z,2.52
2022-11-30T06:58:07.611Z,2.54
2022-11-30T07:00:34.966Z,2.52
2022-11-30T07:03:02.548Z,2.31
2022-11-30T07:05:29.578Z,2.46
2022-11-30T07:07:56.607Z,2.45
2022-11-30T07:10:23.589Z,2.48
2022-11-30T07:12:50.663Z,2.56
2022-11-30T07:15:23.752Z,2.43
2022-11-30T07:17:50.705Z,2.56
2022-11-30T07:20:17.707Z,2.44
2022-11-30T07:22:44.737Z,2.59
2022-11-30T07:25:30.557Z,2.44
2022-11-30T07:27:57.508Z,2.48
2022-11-30T07:30:24.472Z,2.49
2022-11-30T07:32:51.499Z,2.68
2022-11-30T07:35:18.380Z,2.42
2022-11-30T07:37:45.450Z,2.55
2022-11-30T07:40:12.826Z,2.53
2022-11-30T07:42:39.739Z,2.61
2022-11-30T07:45:07.346Z,2.75
2022-11-30T07:47:34.290Z,2.57
2022-11-30T07:50:01.336Z,2.78
2022-11-30T07:52:28.285Z,2.68
2022-11-30T07:54:55.256Z,2.78
2022-11-30T07:57:22.272Z,2.66
2022-11-30T07:59:49.545Z,2.60
2022-11-30T08:02:16.968Z,2.70
2022-11-30T08:04:44.133Z,2.73
2022-11-30T08:07:11.170Z,2.71
2022-11-30T08:09:38.079Z,2.73
2022-11-30T08:12:05.199Z,2.77
2022-11-30T08:14:41.212Z,2.90
2022-11-30T08:17:19.207Z,2.98
2022-11-30T08:19:48.971Z,2.98
2022-11-30T08:22:15.955Z,2.99
2022-11-30T08:24:43.112Z,2.92
2022-11-30T08:27:10.097Z,2.94
2022-11-30T08:29:37.033Z,3.00
2022-11-30T08:32:04.260Z,2.98
2022-11-30T08:34:31.291Z,2.98
2022-11-30T08:36:58.269Z,3.04
2022-11-30T08:39:28.159Z,3.06
2022-11-30T08:41:55.164Z,3.01
2022-11-30T08:44:22.129Z,3.13
2022-11-30T08:46:51.954Z,3.28
2022-11-30T08:49:23.161Z,3.16
2022-11-30T08:52:16.486Z,3.19
2022-11-30T08:54:39.610Z,3.12
2022-11-30T08:57:06.618Z,3.14
2022-11-30T08:59:33.646Z,3.21
2022-11-30T09:02:00.600Z,3.30
2022-11-30T09:04:27.605Z,3.34
2022-11-30T09:06:59.308Z,3.28
2022-11-30T09:09:26.596Z,3.33
2022-11-30T09:11:53.564Z,3.33
2022-11-30T09:14:20.700Z,3.55
2022-11-30T09:16:47.909Z,3.50
2022-11-30T09:19:14.903Z,3.56
2022-11-30T09:21:45.456Z,3.55
2022-11-30T09:24:16.869Z,3.54
2022-11-30T09:26:43.924Z,3.65
2022-11-30T09:29:10.917Z,3.68
2022-11-30T09:31:37.970Z,3.62
2022-11-30T09:34:04.911Z,3.69
2022-11-30T09:36:33.229Z,3.69
2022-11-30T09:39:00.162Z,3.78
2022-11-30T09:41:44.758Z,3.98
2022-11-30T09:44:23.848Z,4.01
2022-11-30T09:47:27.238Z,4.00
2022-11-30T09:49:56.532Z,3.75
2022-11-30T09:52:45.233Z,4.06
2022-11-30T09:55:14.124Z,3.82
2022-11-30T09:57:52.771Z,3.97
2022-11-30T10:00:21.988Z,3.88
2022-11-30T10:02:49.982Z,4.18
2022-11-30T10:05:28.945Z,4.21
2022-11-30T10:08:12.406Z,4.22
2022-11-30T10:10:57.549Z,4.23
2022-11-30T10:13:46.319Z,4.24
2022-11-30T10:16:19.424Z,4.29
2022-11-30T10:19:17.547Z,4.19
2022-11-30T10:22:29.971Z,4.36
2022-11-30T10:25:22.522Z,4.46
2022-11-30T10:28:17.821Z,4.35
2022-11-30T10:30:48.108Z,4.40
2022-11-30T10:33:24.995Z,4.46
2022-11-30T10:35:53.736Z,4.57
2022-11-30T10:38:39.126Z,4.77
2022-11-30T10:41:15.944Z,4.78
2022-11-30T10:43:49.183Z,4.75
2022-11-30T10:46:22.084Z,4.67
2022-11-30T10:49:01.244Z,4.67
2022-11-30T10:51:28.261Z,4.69
2022-11-30T10:53:55.222Z,4.86
2022-11-30T10:56:22.201Z,4.85
2022-11-30T10:59:02.384Z,5.07
2022-11-30T11:01:34.793Z,5.00
2022-11-30T11:04:22.983Z,4.89
2022-11-30T11:06:57.066Z,4.96
2022-11-30T11:09:27.645Z,5.18
2022-11-30T11:11:55.267Z,5.17
2022-11-30T11:14:23.312Z,5.11
2022-11-30T11:17:01.223Z,5.15
2022-11-30T11:19:33.442Z,5.28
2022-11-30T11:22:13.573Z,5.22
2022-11-30T11:24:40.581Z,5.23
2022-11-30T11:27:07.509Z,5.19
2022-11-30T11:29:35.032Z,5.20
2022-11-30T11:32:09.719Z,5.39
2022-11-30T11:34:37.180Z,5.36
2022-11-30T11:37:08.485Z,5.40
2022-11-30T11:39:35.619Z,5.36
2022-11-30T11:42:02.672Z,5.32
2022-11-30T11:44:29.796Z,5.39
2022-11-30T11:46:59.074Z,5.39
2022-11-30T11:49:33.042Z,5.63
2022-11-30T11:52:18.193Z,5.48
2022-11-30T11:55:05.787Z,5.48
2022-11-30T11:57:54.006Z,5.66
2022-11-30T12:00:23.626Z,5.62
2022-11-30T12:02:59.693Z,5.76
2022-11-30T12:05:42.313Z,5.72
2022-11-30T12:08:27.718Z,5.76
2022-11-30T12:11:01.063Z,5.56
2022-11-30T12:13:37.689Z,5.72
2022-11-30T12:16:20.124Z,5.84
2022-11-30T12:19:14.736Z,5.83
2022-11-30T12:22:03.832Z,5.77
2022-11-30T12:24:52.162Z,5.81
2022-11-30T12:27:25.107Z,5.88
2022-11-30T12:30:10.154Z,5.71
2022-11-30T12:32:46.328Z,5.90
2022-11-30T12:35:27.269Z,5.76
2022-11-30T12:38:07.860Z,5.84
2022-11-30T12:41:10.353Z,5.93
2022-11-30T12:43:47.272Z,5.93
2022-11-30T12:46:24.359Z,5.76
2022-11-30T12:49:20.846Z,5.94
2022-11-30T12:52:07.392Z,5.92
2022-11-30T12:54:42.580Z,5.96
2022-11-30T12:57:27.906Z,5.80
2022-11-30T13:00:04.088Z,5.73
2022-11-30T13:02:49.504Z,5.97
2022-11-30T13:05:23.049Z,5.89
2022-11-30T13:07:59.428Z,5.85
2022-11-30T13:10:41.518Z,5.87
2022-11-30T13:13:13.232Z,5.89
2022-11-30T13:15:40.235Z,5.77
2022-11-30T13:18:07.380Z,5.83
2022-11-30T13:20:39.162Z,5.95
2022-11-30T13:23:10.786Z,5.97
2022-11-30T13:26:08.974Z,5.89
2022-11-30T13:28:42.606Z,6.11
2022-11-30T13:31:27.435Z,6.12
2022-11-30T13:33:54.413Z,6.13
2022-11-30T13:36:30.577Z,6.12
2022-11-30T13:39:27.134Z,5.94
2022-11-30T13:42:36.496Z,6.08
2022-11-30T13:45:12.578Z,6.13
2022-11-30T13:47:47.129Z,6.05
2022-11-30T13:50:32.240Z,6.20
2022-11-30T13:52:59.425Z,6.17
2022-11-30T13:55:59.460Z,6.18
2022-11-30T13:58:26.696Z,5.92
2022-11-30T14:01:01.400Z,6.16
2022-11-30T14:03:30.146Z,5.97
2022-11-30T14:06:01.259Z,6.00
2022-11-30T14:08:40.788Z,6.02
2022-11-30T14:11:26.667Z,6.19
2022-11-30T14:13:53.633Z,5.96
2022-11-30T14:16:25.290Z,6.07
2022-11-30T14:18:52.687Z,5.95
2022-11-30T14:21:28.973Z,6.21
2022-11-30T14:24:16.845Z,5.98
2022-11-30T14:26:54.323Z,6.07
2022-11-30T14:29:35.857Z,6.05
2022-11-30T14:32:08.971Z,6.18
2022-11-30T14:34:37.688Z,6.19
2022-11-30T14:37:12.571Z,5.97
2022-11-30T14:39:43.273Z,6.00
2022-11-30T14:42:25.745Z,6.18
2022-11-30T14:44:54.089Z,5.92
2022-11-30T14:47:29.613Z,5.92
2022-11-30T14:50:02.527Z,5.91
2022-11-30T14:52:57.092Z,6.15
2022-11-30T14:56:11.172Z,6.11
2022-11-30T14:59:02.731Z,6.10
2022-11-30T15:01:31.005Z,5.89
2022-11-30T15:04:04.337Z,5.99
2022-11-30T15:06:32.124Z,5.91
2022-11-30T15:09:01.257Z,6.07
2022-11-30T15:11:28.356Z,5.96
2022-11-30T15:14:09.845Z,5.86
2022-11-30T15:16:37.107Z,5.90
2022-11-30T15:19:36.873Z,6.04
2022-11-30T15:22:05.152Z,5.85
2022-11-30T15:24:34.520Z,5.89
2022-11-30T15:27:11.502Z,5.80
2022-11-30T15:29:47.453Z,5.81
2022-11-30T15:32:20.730Z,5.81
2022-11-30T15:35:01.268Z,5.84
2022-11-30T15:37:33.053Z,5.79
2022-11-30T15:40:01.305Z,5.99
2022-11-30T15:42:39.733Z,5.80
2022-11-30T15:45:21.979Z,6.00
2022-11-30T15:47:49.080Z,5.75
2022-11-30T15:50:32.827Z,5.70
2022-11-30T15:53:20.762Z,5.77
2022-11-30T15:55:48.339Z,5.96
2022-11-30T15:58:37.219Z,5.78
2022-11-30T16:01:13.249Z,5.67
2022-11-30T16:03:58.685Z,5.93
2022-11-30T16:06:26.266Z,5.93
2022-11-30T16:08:53.238Z,5.73
2022-11-30T16:11:23.011Z,5.65
2022-11-30T16:13:53.128Z,5.79
2022-11-30T16:16:21.921Z,5.81
2022-11-30T16:18:52.289Z,5.72
2022-11-30T16:21:19.686Z,5.71
2022-11-30T16:23:46.944Z,5.62
2022-11-30T16:29:05.464Z,5.58
2022-11-30T16:31:32.639Z,5.65
2022-11-30T16:34:02.561Z,5.77
2022-11-30T16:36:30.741Z,5.63
2022-11-30T16:38:59.306Z,5.62
2022-11-30T16:41:27.268Z,5.60
2022-11-30T16:43:57.143Z,5.61
2022-11-30T16:46:28.333Z,5.70
2022-11-30T16:48:55.506Z,5.52
2022-11-30T16:51:27.702Z,5.60
2022-11-30T16:53:54.867Z,5.57
2022-11-30T16:56:22.182Z,5.51
2022-11-30T16:58:49.364Z,5.45
2022-11-30T17:01:36.687Z,5.54
2022-11-30T17:04:12.509Z,5.49
2022-11-30T17:06:39.607Z,5.45
2022-11-30T17:09:09.390Z,5.50
2022-11-30T17:11:36.735Z,5.48
2022-11-30T17:14:06.126Z,5.47
2022-11-30T17:16:33.216Z,5.42
2022-11-30T17:19:00.344Z,5.52
2022-11-30T17:21:31.675Z,5.43
2022-11-30T17:23:58.831Z,5.33
2022-11-30T17:26:30.467Z,5.36
2022-11-30T17:28:57.624Z,5.38
2022-11-30T17:31:27.217Z,5.39
2022-11-30T17:33:56.597Z,5.41
2022-11-30T17:36:24.069Z,5.29
2022-11-30T17:38:51.298Z,5.39
2022-11-30T17:41:19.882Z,5.28
2022-11-30T17:43:47.705Z,5.21
2022-11-30T17:46:16.075Z,5.20
2022-11-30T17:48:43.580Z,5.42
2022-11-30T17:51:11.036Z,5.41
2022-11-30T17:53:39.087Z,5.18
2022-11-30T17:56:14.113Z,5.16
2022-11-30T17:58:44.660Z,5.26
2022-11-30T18:01:19.570Z,5.16
2022-11-30T18:03:46.884Z,5.31
2022-11-30T18:06:16.531Z,5.14
2022-11-30T18:08:48.755Z,5.08
2022-11-30T18:11:22.282Z,5.09
2022-11-30T18:13:51.771Z,4.97
2022-11-30T18:16:20.748Z,5.04
2022-11-30T18:18:48.821Z,5.00
2022-11-30T18:21:18.043Z,4.98
2022-11-30T18:23:45.183Z,5.00
2022-11-30T18:26:13.822Z,4.89
2022-11-30T18:28:41.090Z,4.90
2022-11-30T18:31:08.139Z,4.96
2022-11-30T18:33:35.757Z,4.80
2022-11-30T18:36:03.206Z,4.84
2022-11-30T18:38:37.042Z,4.80
2022-11-30T18:41:05.161Z,4.74
2022-11-30T18:43:33.641Z,4.73
2022-11-30T18:46:10.824Z,4.83
2022-11-30T18:48:38.095Z,4.95
2022-11-30T18:51:12.809Z,4.74
2022-11-30T18:53:39.815Z,4.90
2022-11-30T18:56:17.849Z,4.71
2022-11-30T18:58:46.595Z,4.81
2022-11-30T19:01:15.521Z,4.83
2022-11-30T19:03:47.930Z,4.63
2022-11-30T19:06:14.915Z,4.61
2022-11-30T19:08:42.250Z,4.62
2022-11-30T19:11:10.586Z,4.69
2022-11-30T19:13:38.245Z,4.63
2022-11-30T19:16:09.482Z,4.48
2022-11-30T19:18:36.688Z,4.75
2022-11-30T19:21:08.536Z,4.69
2022-11-30T19:23:36.783Z,4.66
2022-11-30T19:26:04.534Z,4.45
2022-11-30T19:28:33.408Z,4.43
2022-11-30T19:31:07.472Z,4.67
2022-11-30T19:33:35.666Z,4.47
2022-11-30T19:36:03.271Z,4.53
2022-11-30T19:38:30.245Z,4.45
2022-11-30T19:40:57.183Z,4.56
2022-11-30T19:43:24.248Z,4.38
2022-11-30T19:45:51.204Z,4.54
2022-11-30T19:48:18.212Z,4.55
2022-11-30T19:50:45.326Z,4.51
2022-11-30T19:53:12.301Z,4.41
2022-11-30T19:55:40.563Z,4.43
2022-11-30T19:58:07.528Z,4.39
2022-11-30T20:00:34.447Z,4.52
2022-11-30T20:03:09.718Z,4.21
2022-11-30T20:05:37.489Z,4.32
2022-11-30T20:08:04.982Z,4.23
2022-11-30T20:10:32.313Z,4.44
2022-11-30T20:12:59.587Z,4.31
2022-11-30T20:15:26.799Z,4.19
2022-11-30T20:17:53.768Z,4.22
2022-11-30T20:20:20.737Z,4.13
2022-11-30T20:22:47.730Z,4.20
2022-11-30T20:25:14.863Z,4.32
2022-11-30T20:27:41.851Z,4.13
2022-11-30T20:30:09.401Z,4.22
2022-11-30T20:32:42.956Z,4.05
2022-11-30T20:35:21.030Z,4.03
2022-11-30T20:37:48.330Z,3.98
2022-11-30T20:40:16.007Z,4.25
2022-11-30T20:42:43.187Z,4.18
2022-11-30T20:45:10.419Z,4.07
2022-11-30T20:47:37.477Z,3.97
2022-11-30T20:50:05.145Z,4.10
2022-11-30T20:52:32.187Z,3.89
2022-11-30T20:54:59.163Z,3.95
2022-11-30T20:57:26.110Z,3.92
2022-11-30T20:59:53.211Z,3.91
2022-11-30T21:02:20.472Z,3.91
2022-11-30T21:04:47.736Z,3.78
2022-11-30T21:07:15.000Z,3.98
2022-11-30T21:09:42.098Z,3.73
2022-11-30T21:12:09.411Z,3.94
2022-11-30T21:14:37.322Z,3.78
2022-11-30T21:17:04.635Z,3.79
2022-11-30T21:19:32.127Z,3.71
2022-11-30T21:22:03.290Z,3.81
2022-11-30T21:24:32.336Z,3.83
2022-11-30T21:26:59.423Z,3.64
2022-11-30T21:29:26.409Z,3.64
2022-11-30T21:31:53.421Z,3.75
2022-11-30T21:34:20.431Z,3.60
2022-11-30T21:36:47.551Z,3.66
2022-11-30T21:39:14.962Z,3.54
2022-11-30T21:41:41.998Z,3.67
2022-11-30T21:44:14.328Z,3.66
2022-11-30T21:46:41.763Z,3.62
2022-11-30T21:49:10.072Z,3.61
2022-11-30T21:51:37.185Z,3.61
2022-11-30T21:54:05.821Z,3.60
2022-11-30T21:56:35.102Z,3.66
2022-11-30T21:59:02.281Z,3.53
2022-11-30T22:01:33.987Z,3.57
2022-11-30T22:04:02.908Z,3.49
2022-11-30T22:06:30.669Z,3.72
2022-11-30T22:09:03.495Z,3.59
2022-11-30T22:11:30.939Z,3.59
2022-11-30T22:13:58.076Z,3.58
2022-11-30T22:16:27.030Z,3.56
2022-11-30T22:18:56.503Z,3.66
2022-11-30T22:21:28.047Z,3.48
2022-11-30T22:24:02.546Z,3.73
2022-11-30T22:26:36.858Z,3.75
2022-11-30T22:29:05.962Z,3.48
2022-11-30T22:31:38.338Z,3.56
2022-11-30T22:34:05.506Z,3.59
2022-11-30T22:36:34.847Z,3.71
2022-11-30T22:39:18.891Z,3.58
2022-11-30T22:41:48.628Z,3.60
2022-11-30T22:44:20.451Z,3.60
2022-11-30T22:46:47.661Z,3.62
2022-11-30T22:49:20.230Z,3.67
2022-11-30T22:51:48.146Z,3.78
2022-11-30T22:54:15.217Z,3.66
2022-11-30T22:56:42.325Z,3.61
2022-11-30T22:59:12.696Z,3.59
2022-11-30T23:01:44.504Z,3.65
2022-11-30T23:04:13.341Z,3.71
2022-11-30T23:06:41.062Z,3.83
2022-11-30T23:09:10.465Z,3.74
2022-11-30T23:11:37.455Z,3.62
2022-11-30T23:14:06.304Z,3.68
2022-11-30T23:16:33.263Z,3.61
2022-11-30T23:19:03.169Z,3.65
2022-11-30T23:21:34.769Z,3.84
2022-11-30T23:24:07.346Z,3.65
2022-11-30T23:26:35.691Z,3.66
2022-11-30T23:29:10.337Z,3.66
2022-11-30T23:31:38.623Z,3.83
2022-11-30T23:34:07.577Z,3.56
2022-11-30T23:36:34.979Z,3.75
2022-11-30T23:39:04.303Z,3.64
2022-11-30T23:41:31.341Z,3.64
2022-11-30T23:43:58.341Z,3.65
2022-11-30T23:46:25.811Z,3.69
2022-11-30T23:48:52.839Z,3.62
2022-11-30T23:51:19.882Z,3.69
2022-11-30T23:53:46.779Z,3.61
2022-11-30T23:56:14.602Z,3.79
2022-11-30T23:58:41.630Z,3.71
